Main page
METAR-TAF:

METAR-TAF

Airports :

Murcia, Spain

Base Aérea de Alcantarilla

latitude: 37-57N, longitude: 001-14W, elevation: 75 m

Current weather observation

The report was made 9 hours and 48 minutes ago, at 18:00 UTC
Wind 8 kt from the South
Temperature 25°C
Humidity 57%
Pressure 1019 hPa
Visibility 10 km or more
no clouds below 1500 m and no cumulonimbus

METAR: LERI 191800Z 17008KT CAVOK 25/16 Q1019 NOSIG

Time: 05:48 (03:48 UTC)

Forecast

The report was made 1 hour and 48 minutes ago, at 02:00 UTC
Forecast valid from 20 at 03 UTC to 20 at 12 UTC
Wind 2 kt from variable directions
Visibility 10 km or more
Scattered clouds at a height of 2000 ft
Probability 30% :
Temporary
from 20 at 04 UTC to 20 at 08 UTC
Broken clouds at a height of 1400 ft

TAF: LERI 200200Z 2003/2012 VRB02KT 9999 SCT020 PROB30 TEMPO 2004/2008 BKN014

Weather observations and forecasts of more than 4000 airports (METAR and TAF reports).

The available stations are represented by yellow and red dots on the map.

Hover mouse over dot to see the name of the station.

Then click to see weather observations and forecasts.

To change the map : click on the green buttons with a black cross to zoom in, on the green button with a dash to zoom out, or on the green arrows for adjacent maps.


METAR-TAF: